sensor_id;sensor_type;location;lat;lon;timestamp;P1;durP1;ratioP1;P2;durP2;ratioP2
33170;SDS011;19535;50.672;4.206;2023-12-04T00:02:08;3.60;;;3.30;;
33170;SDS011;19535;50.672;4.206;2023-12-04T00:04:35;3.50;;;3.20;;
33170;SDS011;19535;50.672;4.206;2023-12-04T00:07:03;3.35;;;3.05;;
33170;SDS011;19535;50.672;4.206;2023-12-04T00:09:30;3.20;;;2.90;;
33170;SDS011;19535;50.672;4.206;2023-12-04T00:11:58;3.75;;;3.45;;
33170;SDS011;19535;50.672;4.206;2023-12-04T00:14:25;3.50;;;3.20;;
33170;SDS011;19535;50.672;4.206;2023-12-04T00:16:52;3.38;;;3.08;;
33170;SDS011;19535;50.672;4.206;2023-12-04T00:19:19;3.67;;;3.33;;
33170;SDS011;19535;50.672;4.206;2023-12-04T00:21:46;3.47;;;3.10;;
33170;SDS011;19535;50.672;4.206;2023-12-04T00:24:14;3.20;;;2.90;;
33170;SDS011;19535;50.672;4.206;2023-12-04T00:26:41;3.58;;;2.92;;
33170;SDS011;19535;50.672;4.206;2023-12-04T00:29:08;3.30;;;3.00;;
33170;SDS011;19535;50.672;4.206;2023-12-04T00:31:35;2.90;;;2.70;;
33170;SDS011;19535;50.672;4.206;2023-12-04T00:34:02;2.72;;;2.53;;
33170;SDS011;19535;50.672;4.206;2023-12-04T00:36:29;3.47;;;3.17;;
33170;SDS011;19535;50.672;4.206;2023-12-04T00:38:57;3.33;;;3.08;;
33170;SDS011;19535;50.672;4.206;2023-12-04T00:41:24;2.90;;;2.70;;
33170;SDS011;19535;50.672;4.206;2023-12-04T00:43:51;2.80;;;2.60;;
33170;SDS011;19535;50.672;4.206;2023-12-04T00:46:18;3.00;;;2.75;;
33170;SDS011;19535;50.672;4.206;2023-12-04T00:48:45;2.80;;;2.60;;
33170;SDS011;19535;50.672;4.206;2023-12-04T00:51:13;2.47;;;2.28;;
33170;SDS011;19535;50.672;4.206;2023-12-04T00:53:40;3.22;;;2.92;;
33170;SDS011;19535;50.672;4.206;2023-12-04T00:56:07;2.63;;;2.42;;
33170;SDS011;19535;50.672;4.206;2023-12-04T00:58:34;2.75;;;2.55;;
33170;SDS011;19535;50.672;4.206;2023-12-04T01:01:01;2.78;;;2.58;;
33170;SDS011;19535;50.672;4.206;2023-12-04T01:03:28;2.92;;;2.72;;
33170;SDS011;19535;50.672;4.206;2023-12-04T01:05:59;3.50;;;2.80;;
33170;SDS011;19535;50.672;4.206;2023-12-04T01:08:26;2.60;;;2.40;;
33170;SDS011;19535;50.672;4.206;2023-12-04T01:10:53;2.80;;;2.60;;
33170;SDS011;19535;50.672;4.206;2023-12-04T01:13:20;2.50;;;2.30;;
33170;SDS011;19535;50.672;4.206;2023-12-04T01:15:47;2.58;;;2.38;;
33170;SDS011;19535;50.672;4.206;2023-12-04T01:18:15;2.63;;;2.42;;
33170;SDS011;19535;50.672;4.206;2023-12-04T01:20:42;2.67;;;2.47;;
33170;SDS011;19535;50.672;4.206;2023-12-04T01:23:09;2.30;;;2.20;;
33170;SDS011;19535;50.672;4.206;2023-12-04T01:25:36;2.30;;;2.20;;
33170;SDS011;19535;50.672;4.206;2023-12-04T01:28:03;2.58;;;2.38;;
33170;SDS011;19535;50.672;4.206;2023-12-04T01:30:30;2.13;;;2.00;;
33170;SDS011;19535;50.672;4.206;2023-12-04T01:32:57;2.17;;;1.98;;
33170;SDS011;19535;50.672;4.206;2023-12-04T01:35:24;2.40;;;2.20;;
33170;SDS011;19535;50.672;4.206;2023-12-04T01:37:52;2.17;;;2.03;;
33170;SDS011;19535;50.672;4.206;2023-12-04T01:40:19;2.33;;;2.20;;
33170;SDS011;19535;50.672;4.206;2023-12-04T01:42:46;3.00;;;2.47;;
33170;SDS011;19535;50.672;4.206;2023-12-04T01:45:13;2.40;;;2.20;;
33170;SDS011;19535;50.672;4.206;2023-12-04T01:47:40;2.40;;;2.20;;
33170;SDS011;19535;50.672;4.206;2023-12-04T01:50:07;2.30;;;2.10;;
33170;SDS011;19535;50.672;4.206;2023-12-04T01:52:35;2.33;;;2.13;;
33170;SDS011;19535;50.672;4.206;2023-12-04T01:55:03;2.35;;;2.15;;
33170;SDS011;19535;50.672;4.206;2023-12-04T01:57:31;2.58;;;2.38;;
33170;SDS011;19535;50.672;4.206;2023-12-04T01:59:59;2.10;;;1.98;;
33170;SDS011;19535;50.672;4.206;2023-12-04T09:12:45;1.27;;;1.17;;
33170;SDS011;19535;50.672;4.206;2023-12-04T09:15:12;1.00;;;1.00;;
33170;SDS011;19535;50.672;4.206;2023-12-04T09:17:39;1.30;;;1.20;;
33170;SDS011;19535;50.672;4.206;2023-12-04T09:20:08;1.23;;;1.13;;
33170;SDS011;19535;50.672;4.206;2023-12-04T09:22:35;1.40;;;1.30;;
33170;SDS011;19535;50.672;4.206;2023-12-04T09:25:17;1.27;;;1.17;;
33170;SDS011;19535;50.672;4.206;2023-12-04T09:27:45;1.40;;;1.30;;
33170;SDS011;19535;50.672;4.206;2023-12-04T09:30:12;1.33;;;1.23;;
33170;SDS011;19535;50.672;4.206;2023-12-04T09:32:40;1.20;;;1.10;;
33170;SDS011;19535;50.672;4.206;2023-12-04T09:35:07;1.40;;;1.30;;
33170;SDS011;19535;50.672;4.206;2023-12-04T09:37:35;0.95;;;0.90;;
33170;SDS011;19535;50.672;4.206;2023-12-04T09:40:02;5.25;;;1.38;;
33170;SDS011;19535;50.672;4.206;2023-12-04T09:42:30;3.25;;;1.80;;
33170;SDS011;19535;50.672;4.206;2023-12-04T09:44:57;3.25;;;2.05;;
33170;SDS011;19535;50.672;4.206;2023-12-04T09:47:25;3.50;;;3.17;;
33170;SDS011;19535;50.672;4.206;2023-12-04T09:49:52;6.80;;;3.72;;
33170;SDS011;19535;50.672;4.206;2023-12-04T09:52:20;4.22;;;3.92;;
33170;SDS011;19535;50.672;4.206;2023-12-04T09:54:47;5.28;;;4.68;;
33170;SDS011;19535;50.672;4.206;2023-12-04T09:57:17;4.75;;;4.45;;
33170;SDS011;19535;50.672;4.206;2023-12-04T09:59:44;4.95;;;4.53;;
33170;SDS011;19535;50.672;4.206;2023-12-04T10:02:12;4.88;;;4.35;;
33170;SDS011;19535;50.672;4.206;2023-12-04T10:04:39;4.88;;;3.90;;
33170;SDS011;19535;50.672;4.206;2023-12-04T10:07:07;5.32;;;4.28;;
33170;SDS011;19535;50.672;4.206;2023-12-04T10:09:34;4.65;;;3.90;;
33170;SDS011;19535;50.672;4.206;2023-12-04T10:12:01;3.78;;;3.47;;
33170;SDS011;19535;50.672;4.206;2023-12-04T10:14:28;3.13;;;2.92;;
33170;SDS011;19535;50.672;4.206;2023-12-04T10:16:56;3.17;;;2.97;;
33170;SDS011;19535;50.672;4.206;2023-12-04T10:19:27;2.92;;;2.72;;
33170;SDS011;19535;50.672;4.206;2023-12-04T10:21:57;3.05;;;2.85;;
33170;SDS011;19535;50.672;4.206;2023-12-04T10:24:30;2.60;;;2.40;;
33170;SDS011;19535;50.672;4.206;2023-12-04T10:26:59;2.67;;;2.47;;
33170;SDS011;19535;50.672;4.206;2023-12-04T10:29:48;2.30;;;2.10;;
33170;SDS011;19535;50.672;4.206;2023-12-04T10:32:20;2.78;;;2.50;;
33170;SDS011;19535;50.672;4.206;2023-12-04T10:34:49;2.25;;;2.05;;
33170;SDS011;19535;50.672;4.206;2023-12-04T10:37:17;2.17;;;2.08;;
33170;SDS011;19535;50.672;4.206;2023-12-04T10:39:46;2.33;;;2.00;;
33170;SDS011;19535;50.672;4.206;2023-12-04T10:42:23;2.25;;;2.05;;
33170;SDS011;19535;50.672;4.206;2023-12-04T10:44:56;2.45;;;1.92;;
33170;SDS011;19535;50.672;4.206;2023-12-04T10:47:24;2.50;;;1.80;;
33170;SDS011;19535;50.672;4.206;2023-12-04T10:49:52;2.20;;;2.08;;
33170;SDS011;19535;50.672;4.206;2023-12-04T10:52:19;1.90;;;1.80;;
33170;SDS011;19535;50.672;4.206;2023-12-04T10:54:49;2.13;;;1.90;;
33170;SDS011;19535;50.672;4.206;2023-12-04T10:57:20;2.50;;;1.75;;
33170;SDS011;19535;50.672;4.206;2023-12-04T11:00:00;2.00;;;1.90;;
33170;SDS011;19535;50.672;4.206;2023-12-04T11:02:30;2.00;;;1.90;;
33170;SDS011;19535;50.672;4.206;2023-12-04T11:05:11;2.00;;;1.90;;
33170;SDS011;19535;50.672;4.206;2023-12-04T11:07:50;1.83;;;1.70;;
33170;SDS011;19535;50.672;4.206;2023-12-04T11:13:41;1.92;;;1.60;;
33170;SDS011;19535;50.672;4.206;2023-12-04T11:16:16;1.85;;;1.75;;
33170;SDS011;19535;50.672;4.206;2023-12-04T11:18:48;2.25;;;2.08;;
33170;SDS011;19535;50.672;4.206;2023-12-04T11:21:19;1.75;;;1.65;;
33170;SDS011;19535;50.672;4.206;2023-12-04T11:23:47;1.80;;;1.55;;
33170;SDS011;19535;50.672;4.206;2023-12-04T11:26:14;2.05;;;1.88;;
33170;SDS011;19535;50.672;4.206;2023-12-04T11:28:41;1.58;;;1.48;;
33170;SDS011;19535;50.672;4.206;2023-12-04T11:31:09;1.60;;;1.50;;
33170;SDS011;19535;50.672;4.206;2023-12-04T11:33:36;1.92;;;1.73;;
33170;SDS011;19535;50.672;4.206;2023-12-04T11:36:07;1.92;;;1.60;;
33170;SDS011;19535;50.672;4.206;2023-12-04T11:38:43;1.85;;;1.75;;
33170;SDS011;19535;50.672;4.206;2023-12-04T11:41:16;1.58;;;1.48;;
33170;SDS011;19535;50.672;4.206;2023-12-04T11:43:52;1.60;;;1.40;;
33170;SDS011;19535;50.672;4.206;2023-12-04T11:46:22;1.40;;;1.30;;
33170;SDS011;19535;50.672;4.206;2023-12-04T11:48:54;1.60;;;1.48;;
33170;SDS011;19535;50.672;4.206;2023-12-04T11:54:14;1.40;;;1.30;;
33170;SDS011;19535;50.672;4.206;2023-12-04T11:59:45;3.92;;;1.55;;
33170;SDS011;19535;50.672;4.206;2023-12-04T12:02:13;1.67;;;1.30;;
33170;SDS011;19535;50.672;4.206;2023-12-04T12:04:40;2.60;;;1.45;;
33170;SDS011;19535;50.672;4.206;2023-12-04T12:07:07;1.23;;;1.13;;
33170;SDS011;19535;50.672;4.206;2023-12-04T12:09:34;1.25;;;1.15;;
33170;SDS011;19535;50.672;4.206;2023-12-04T12:12:02;2.42;;;1.30;;
33170;SDS011;19535;50.672;4.206;2023-12-04T12:14:29;2.45;;;1.77;;
33170;SDS011;19535;50.672;4.206;2023-12-04T12:17:00;5.50;;;1.55;;
33170;SDS011;19535;50.672;4.206;2023-12-04T12:19:30;2.83;;;1.75;;
33170;SDS011;19535;50.672;4.206;2023-12-04T12:21:57;5.10;;;1.85;;
33170;SDS011;19535;50.672;4.206;2023-12-04T12:24:24;4.72;;;1.95;;
33170;SDS011;19535;50.672;4.206;2023-12-04T12:26:53;3.63;;;1.60;;
33170;SDS011;19535;50.672;4.206;2023-12-04T12:29:21;4.35;;;1.40;;
33170;SDS011;19535;50.672;4.206;2023-12-04T12:31:49;1.95;;;1.33;;
33170;SDS011;19535;50.672;4.206;2023-12-04T12:34:17;2.27;;;1.63;;
33170;SDS011;19535;50.672;4.206;2023-12-04T12:36:44;3.08;;;1.58;;
33170;SDS011;19535;50.672;4.206;2023-12-04T12:39:11;1.85;;;1.30;;
33170;SDS011;19535;50.672;4.206;2023-12-04T12:41:39;3.38;;;1.48;;
33170;SDS011;19535;50.672;4.206;2023-12-04T12:44:06;2.95;;;1.50;;
33170;SDS011;19535;50.672;4.206;2023-12-04T12:46:33;2.05;;;1.35;;
33170;SDS011;19535;50.672;4.206;2023-12-04T12:49:00;3.35;;;1.80;;
33170;SDS011;19535;50.672;4.206;2023-12-04T12:51:27;1.60;;;1.27;;
33170;SDS011;19535;50.672;4.206;2023-12-04T12:53:56;1.63;;;1.25;;
33170;SDS011;19535;50.672;4.206;2023-12-04T12:56:24;2.75;;;1.42;;
33170;SDS011;19535;50.672;4.206;2023-12-04T12:58:52;4.63;;;1.77;;
33170;SDS011;19535;50.672;4.206;2023-12-04T13:01:22;1.55;;;1.45;;
33170;SDS011;19535;50.672;4.206;2023-12-04T13:03:51;1.77;;;1.58;;
33170;SDS011;19535;50.672;4.206;2023-12-04T13:06:19;1.38;;;1.20;;
33170;SDS011;19535;50.672;4.206;2023-12-04T13:08:46;3.55;;;1.70;;
33170;SDS011;19535;50.672;4.206;2023-12-04T13:11:13;2.38;;;1.30;;
33170;SDS011;19535;50.672;4.206;2023-12-04T13:13:40;2.72;;;1.60;;
33170;SDS011;19535;50.672;4.206;2023-12-04T13:16:07;2.22;;;1.27;;
33170;SDS011;19535;50.672;4.206;2023-12-04T13:18:35;1.90;;;1.42;;
33170;SDS011;19535;50.672;4.206;2023-12-04T13:21:02;1.98;;;1.10;;
33170;SDS011;19535;50.672;4.206;2023-12-04T13:23:30;2.38;;;1.55;;
33170;SDS011;19535;50.672;4.206;2023-12-04T13:25:57;1.85;;;1.10;;
33170;SDS011;19535;50.672;4.206;2023-12-04T13:28:24;1.55;;;1.42;;
33170;SDS011;19535;50.672;4.206;2023-12-04T13:31:01;1.73;;;1.30;;
33170;SDS011;19535;50.672;4.206;2023-12-04T13:33:29;3.05;;;1.20;;
33170;SDS011;19535;50.672;4.206;2023-12-04T13:35:56;1.67;;;1.27;;
33170;SDS011;19535;50.672;4.206;2023-12-04T13:38:24;1.27;;;1.17;;
33170;SDS011;19535;50.672;4.206;2023-12-04T13:41:00;2.47;;;1.20;;
33170;SDS011;19535;50.672;4.206;2023-12-04T13:43:35;1.27;;;1.08;;
33170;SDS011;19535;50.672;4.206;2023-12-04T13:46:17;1.77;;;1.00;;
33170;SDS011;19535;50.672;4.206;2023-12-04T13:48:45;1.40;;;1.30;;
33170;SDS011;19535;50.672;4.206;2023-12-04T13:51:12;2.15;;;1.00;;
33170;SDS011;19535;50.672;4.206;2023-12-04T13:53:39;2.28;;;1.10;;
33170;SDS011;19535;50.672;4.206;2023-12-04T13:56:11;1.38;;;1.27;;
33170;SDS011;19535;50.672;4.206;2023-12-04T13:58:55;2.20;;;1.13;;
33170;SDS011;19535;50.672;4.206;2023-12-04T14:01:23;1.15;;;0.90;;
33170;SDS011;19535;50.672;4.206;2023-12-04T14:03:54;1.33;;;1.05;;
33170;SDS011;19535;50.672;4.206;2023-12-04T14:06:23;1.13;;;0.88;;
33170;SDS011;19535;50.672;4.206;2023-12-04T14:08:50;1.23;;;1.02;;
33170;SDS011;19535;50.672;4.206;2023-12-04T14:11:17;1.02;;;0.90;;
33170;SDS011;19535;50.672;4.206;2023-12-04T14:13:44;0.80;;;0.80;;
33170;SDS011;19535;50.672;4.206;2023-12-04T14:16:11;1.98;;;1.05;;
33170;SDS011;19535;50.672;4.206;2023-12-04T14:18:39;0.93;;;0.80;;
33170;SDS011;19535;50.672;4.206;2023-12-04T14:21:07;0.80;;;0.80;;
33170;SDS011;19535;50.672;4.206;2023-12-04T14:23:35;2.97;;;0.90;;
33170;SDS011;19535;50.672;4.206;2023-12-04T14:26:02;1.25;;;1.00;;
33170;SDS011;19535;50.672;4.206;2023-12-04T14:28:29;1.15;;;0.80;;
33170;SDS011;19535;50.672;4.206;2023-12-04T14:31:07;1.45;;;0.90;;
33170;SDS011;19535;50.672;4.206;2023-12-04T14:33:34;1.08;;;0.90;;
33170;SDS011;19535;50.672;4.206;2023-12-04T14:36:04;2.05;;;0.98;;
33170;SDS011;19535;50.672;4.206;2023-12-04T14:38:31;2.42;;;1.05;;
33170;SDS011;19535;50.672;4.206;2023-12-04T14:40:58;1.42;;;0.95;;
33170;SDS011;19535;50.672;4.206;2023-12-04T14:43:26;3.30;;;0.90;;
33170;SDS011;19535;50.672;4.206;2023-12-04T14:45:53;1.20;;;1.00;;
33170;SDS011;19535;50.672;4.206;2023-12-04T14:48:21;2.67;;;0.90;;
33170;SDS011;19535;50.672;4.206;2023-12-04T14:50:48;2.53;;;0.85;;
33170;SDS011;19535;50.672;4.206;2023-12-04T14:53:15;1.33;;;0.88;;
33170;SDS011;19535;50.672;4.206;2023-12-04T14:55:54;2.75;;;1.17;;
33170;SDS011;19535;50.672;4.206;2023-12-04T14:58:37;4.57;;;1.05;;
33170;SDS011;19535;50.672;4.206;2023-12-04T15:01:12;1.50;;;0.80;;
33170;SDS011;19535;50.672;4.206;2023-12-04T15:03:48;1.10;;;1.00;;
33170;SDS011;19535;50.672;4.206;2023-12-04T15:06:34;1.77;;;0.88;;
33170;SDS011;19535;50.672;4.206;2023-12-04T15:09:20;3.13;;;0.75;;
33170;SDS011;19535;50.672;4.206;2023-12-04T15:12:05;1.83;;;1.38;;
33170;SDS011;19535;50.672;4.206;2023-12-04T15:14:35;2.40;;;2.08;;
33170;SDS011;19535;50.672;4.206;2023-12-04T15:17:20;3.63;;;3.33;;
33170;SDS011;19535;50.672;4.206;2023-12-04T15:20:00;8.32;;;5.93;;
33170;SDS011;19535;50.672;4.206;2023-12-04T15:22:36;6.47;;;5.85;;
33170;SDS011;19535;50.672;4.206;2023-12-04T15:25:04;6.85;;;6.28;;
33170;SDS011;19535;50.672;4.206;2023-12-04T15:27:34;7.32;;;6.72;;
33170;SDS011;19535;50.672;4.206;2023-12-04T15:30:02;7.10;;;6.43;;
33170;SDS011;19535;50.672;4.206;2023-12-04T15:32:31;6.32;;;5.82;;
33170;SDS011;19535;50.672;4.206;2023-12-04T15:34:58;6.40;;;5.97;;
33170;SDS011;19535;50.672;4.206;2023-12-04T15:37:28;6.03;;;5.53;;
33170;SDS011;19535;50.672;4.206;2023-12-04T15:39:55;6.43;;;5.93;;
33170;SDS011;19535;50.672;4.206;2023-12-04T15:42:22;6.22;;;5.72;;
33170;SDS011;19535;50.672;4.206;2023-12-04T15:44:49;5.55;;;5.07;;
33170;SDS011;19535;50.672;4.206;2023-12-04T15:47:16;5.47;;;5.05;;
33170;SDS011;19535;50.672;4.206;2023-12-04T15:49:47;5.32;;;4.82;;
33170;SDS011;19535;50.672;4.206;2023-12-04T15:52:14;5.68;;;4.93;;
33170;SDS011;19535;50.672;4.206;2023-12-04T15:54:45;4.90;;;4.50;;
33170;SDS011;19535;50.672;4.206;2023-12-04T15:57:13;4.82;;;4.43;;
33170;SDS011;19535;50.672;4.206;2023-12-04T15:59:42;4.80;;;4.35;;
33170;SDS011;19535;50.672;4.206;2023-12-04T16:02:12;4.53;;;4.22;;
33170;SDS011;19535;50.672;4.206;2023-12-04T16:04:39;4.03;;;3.72;;
33170;SDS011;19535;50.672;4.206;2023-12-04T16:07:07;3.88;;;3.58;;
33170;SDS011;19535;50.672;4.206;2023-12-04T16:09:34;3.88;;;3.58;;
33170;SDS011;19535;50.672;4.206;2023-12-04T16:12:01;3.97;;;3.67;;
33170;SDS011;19535;50.672;4.206;2023-12-04T16:14:28;4.95;;;3.50;;
33170;SDS011;19535;50.672;4.206;2023-12-04T16:16:55;3.63;;;3.33;;
33170;SDS011;19535;50.672;4.206;2023-12-04T16:19:23;3.37;;;3.07;;
33170;SDS011;19535;50.672;4.206;2023-12-04T16:21:51;3.90;;;3.60;;
33170;SDS011;19535;50.672;4.206;2023-12-04T16:24:18;3.47;;;3.17;;
33170;SDS011;19535;50.672;4.206;2023-12-04T16:26:48;5.28;;;4.78;;
33170;SDS011;19535;50.672;4.206;2023-12-04T16:29:17;7.85;;;7.13;;
33170;SDS011;19535;50.672;4.206;2023-12-04T16:31:45;12.63;;;11.38;;
33170;SDS011;19535;50.672;4.206;2023-12-04T16:34:13;11.75;;;10.60;;
33170;SDS011;19535;50.672;4.206;2023-12-04T16:36:40;17.20;;;15.50;;
33170;SDS011;19535;50.672;4.206;2023-12-04T16:39:08;21.75;;;19.65;;
33170;SDS011;19535;50.672;4.206;2023-12-04T16:41:35;22.45;;;20.30;;
33170;SDS011;19535;50.672;4.206;2023-12-04T16:44:02;22.90;;;20.70;;
33170;SDS011;19535;50.672;4.206;2023-12-04T16:46:29;22.58;;;20.38;;
33170;SDS011;19535;50.672;4.206;2023-12-04T16:48:56;23.25;;;21.13;;
33170;SDS011;19535;50.672;4.206;2023-12-04T16:51:25;20.67;;;18.88;;
33170;SDS011;19535;50.672;4.206;2023-12-04T16:53:52;20.35;;;18.45;;
33170;SDS011;19535;50.672;4.206;2023-12-04T16:56:22;20.38;;;18.58;;
33170;SDS011;19535;50.672;4.206;2023-12-04T16:58:49;18.48;;;16.77;;
33170;SDS011;19535;50.672;4.206;2023-12-04T17:01:16;17.88;;;16.23;;
33170;SDS011;19535;50.672;4.206;2023-12-04T17:03:43;17.75;;;16.15;;
33170;SDS011;19535;50.672;4.206;2023-12-04T17:06:10;16.92;;;15.43;;
33170;SDS011;19535;50.672;4.206;2023-12-04T17:08:37;16.75;;;15.20;;
33170;SDS011;19535;50.672;4.206;2023-12-04T17:11:04;14.38;;;13.07;;
33170;SDS011;19535;50.672;4.206;2023-12-04T17:13:33;15.20;;;13.90;;
33170;SDS011;19535;50.672;4.206;2023-12-04T17:16:00;13.95;;;12.70;;
33170;SDS011;19535;50.672;4.206;2023-12-04T17:18:27;14.65;;;13.35;;
33170;SDS011;19535;50.672;4.206;2023-12-04T17:20:54;13.70;;;12.40;;
33170;SDS011;19535;50.672;4.206;2023-12-04T17:23:21;14.02;;;12.80;;
33170;SDS011;19535;50.672;4.206;2023-12-04T17:25:50;13.07;;;11.95;;
33170;SDS011;19535;50.672;4.206;2023-12-04T17:28:22;12.48;;;11.27;;
33170;SDS011;19535;50.672;4.206;2023-12-04T17:30:49;11.00;;;9.90;;
33170;SDS011;19535;50.672;4.206;2023-12-04T17:33:17;11.25;;;10.20;;
33170;SDS011;19535;50.672;4.206;2023-12-04T17:35:45;11.15;;;10.15;;
33170;SDS011;19535;50.672;4.206;2023-12-04T17:38:12;11.55;;;9.93;;
33170;SDS011;19535;50.672;4.206;2023-12-04T17:40:39;10.82;;;9.82;;
33170;SDS011;19535;50.672;4.206;2023-12-04T17:43:06;10.48;;;9.50;;
33170;SDS011;19535;50.672;4.206;2023-12-04T17:45:33;11.27;;;10.27;;
33170;SDS011;19535;50.672;4.206;2023-12-04T17:48:00;10.70;;;9.70;;
33170;SDS011;19535;50.672;4.206;2023-12-04T17:50:27;10.30;;;9.30;;
33170;SDS011;19535;50.672;4.206;2023-12-04T17:52:54;14.18;;;9.25;;
33170;SDS011;19535;50.672;4.206;2023-12-04T17:55:21;11.55;;;10.05;;
33170;SDS011;19535;50.672;4.206;2023-12-04T17:57:48;10.98;;;9.98;;
33170;SDS011;19535;50.672;4.206;2023-12-04T18:00:17;13.88;;;10.20;;
33170;SDS011;19535;50.672;4.206;2023-12-04T18:02:45;12.93;;;10.15;;
33170;SDS011;19535;50.672;4.206;2023-12-04T18:05:12;12.18;;;10.65;;
33170;SDS011;19535;50.672;4.206;2023-12-04T18:07:41;17.65;;;10.93;;
33170;SDS011;19535;50.672;4.206;2023-12-04T18:10:09;11.00;;;9.65;;
33170;SDS011;19535;50.672;4.206;2023-12-04T18:12:40;16.02;;;11.60;;
33170;SDS011;19535;50.672;4.206;2023-12-04T18:15:07;25.38;;;13.60;;
33170;SDS011;19535;50.672;4.206;2023-12-04T18:17:36;29.55;;;14.38;;
33170;SDS011;19535;50.672;4.206;2023-12-04T18:20:09;29.75;;;13.35;;
33170;SDS011;19535;50.672;4.206;2023-12-04T18:22:37;30.50;;;14.05;;
33170;SDS011;19535;50.672;4.206;2023-12-04T18:25:04;34.58;;;15.30;;
33170;SDS011;19535;50.672;4.206;2023-12-04T18:27:32;39.65;;;15.95;;
33170;SDS011;19535;50.672;4.206;2023-12-04T18:30:00;40.97;;;17.02;;
33170;SDS011;19535;50.672;4.206;2023-12-04T18:32:30;36.78;;;16.67;;
33170;SDS011;19535;50.672;4.206;2023-12-04T18:34:58;35.25;;;16.10;;
33170;SDS011;19535;50.672;4.206;2023-12-04T18:37:38;30.33;;;16.02;;
33170;SDS011;19535;50.672;4.206;2023-12-04T18:40:11;34.83;;;15.45;;
33170;SDS011;19535;50.672;4.206;2023-12-04T18:42:39;34.40;;;15.38;;
33170;SDS011;19535;50.672;4.206;2023-12-04T18:45:06;31.23;;;15.60;;
33170;SDS011;19535;50.672;4.206;2023-12-04T18:47:38;34.60;;;15.80;;
33170;SDS011;19535;50.672;4.206;2023-12-04T18:50:06;35.70;;;15.23;;
33170;SDS011;19535;50.672;4.206;2023-12-04T18:52:33;32.17;;;14.43;;
33170;SDS011;19535;50.672;4.206;2023-12-04T18:55:03;31.55;;;15.85;;
33170;SDS011;19535;50.672;4.206;2023-12-04T18:57:31;31.67;;;14.80;;
33170;SDS011;19535;50.672;4.206;2023-12-04T18:59:58;24.00;;;13.63;;
33170;SDS011;19535;50.672;4.206;2023-12-04T19:02:25;29.10;;;13.88;;
33170;SDS011;19535;50.672;4.206;2023-12-04T19:04:52;28.00;;;13.32;;
33170;SDS011;19535;50.672;4.206;2023-12-04T19:07:20;27.95;;;13.98;;
33170;SDS011;19535;50.672;4.206;2023-12-04T19:09:47;25.02;;;12.82;;
33170;SDS011;19535;50.672;4.206;2023-12-04T19:12:14;27.77;;;13.70;;
33170;SDS011;19535;50.672;4.206;2023-12-04T19:14:41;20.33;;;11.07;;
33170;SDS011;19535;50.672;4.206;2023-12-04T19:17:08;23.80;;;10.80;;
33170;SDS011;19535;50.672;4.206;2023-12-04T19:19:35;23.65;;;11.50;;
33170;SDS011;19535;50.672;4.206;2023-12-04T19:22:03;19.42;;;10.88;;
33170;SDS011;19535;50.672;4.206;2023-12-04T19:24:30;21.17;;;11.25;;
33170;SDS011;19535;50.672;4.206;2023-12-04T19:26:57;20.02;;;10.85;;
33170;SDS011;19535;50.672;4.206;2023-12-04T19:29:24;19.75;;;10.82;;
33170;SDS011;19535;50.672;4.206;2023-12-04T19:31:55;17.55;;;10.10;;
33170;SDS011;19535;50.672;4.206;2023-12-04T19:34:22;19.30;;;10.10;;
33170;SDS011;19535;50.672;4.206;2023-12-04T19:36:49;14.73;;;9.68;;
33170;SDS011;19535;50.672;4.206;2023-12-04T19:39:16;14.50;;;8.75;;
33170;SDS011;19535;50.672;4.206;2023-12-04T19:41:43;16.23;;;9.00;;
33170;SDS011;19535;50.672;4.206;2023-12-04T19:44:10;15.32;;;9.00;;
33170;SDS011;19535;50.672;4.206;2023-12-04T19:46:41;16.40;;;9.20;;
33170;SDS011;19535;50.672;4.206;2023-12-04T19:49:09;14.30;;;8.75;;
33170;SDS011;19535;50.672;4.206;2023-12-04T19:51:41;14.88;;;8.45;;
33170;SDS011;19535;50.672;4.206;2023-12-04T19:54:10;12.25;;;8.20;;
33170;SDS011;19535;50.672;4.206;2023-12-04T19:56:41;12.82;;;7.95;;
33170;SDS011;19535;50.672;4.206;2023-12-04T19:59:09;13.25;;;8.07;;
33170;SDS011;19535;50.672;4.206;2023-12-04T20:01:37;14.93;;;8.68;;
33170;SDS011;19535;50.672;4.206;2023-12-04T20:04:04;17.92;;;8.48;;
33170;SDS011;19535;50.672;4.206;2023-12-04T20:06:32;13.32;;;8.50;;
33170;SDS011;19535;50.672;4.206;2023-12-04T20:09:00;14.80;;;8.02;;
33170;SDS011;19535;50.672;4.206;2023-12-04T20:11:27;16.70;;;8.82;;
33170;SDS011;19535;50.672;4.206;2023-12-04T20:13:54;17.38;;;8.60;;
33170;SDS011;19535;50.672;4.206;2023-12-04T20:16:22;15.02;;;8.68;;
33170;SDS011;19535;50.672;4.206;2023-12-04T20:18:49;14.35;;;7.95;;
33170;SDS011;19535;50.672;4.206;2023-12-04T20:21:16;13.48;;;8.50;;
33170;SDS011;19535;50.672;4.206;2023-12-04T20:23:43;14.48;;;8.45;;
33170;SDS011;19535;50.672;4.206;2023-12-04T20:26:10;14.73;;;8.48;;
33170;SDS011;19535;50.672;4.206;2023-12-04T20:28:37;16.40;;;9.00;;
33170;SDS011;19535;50.672;4.206;2023-12-04T20:31:05;11.90;;;7.85;;
33170;SDS011;19535;50.672;4.206;2023-12-04T20:33:33;15.63;;;7.53;;
33170;SDS011;19535;50.672;4.206;2023-12-04T20:36:00;16.25;;;8.52;;
33170;SDS011;19535;50.672;4.206;2023-12-04T20:38:31;15.25;;;8.00;;
33170;SDS011;19535;50.672;4.206;2023-12-04T20:40:58;14.80;;;8.00;;
33170;SDS011;19535;50.672;4.206;2023-12-04T20:43:26;13.80;;;7.25;;
33170;SDS011;19535;50.672;4.206;2023-12-04T20:45:55;11.77;;;6.95;;
33170;SDS011;19535;50.672;4.206;2023-12-04T20:48:22;11.02;;;6.63;;
33170;SDS011;19535;50.672;4.206;2023-12-04T20:50:49;11.20;;;6.68;;
33170;SDS011;19535;50.672;4.206;2023-12-04T20:53:16;11.18;;;6.93;;
33170;SDS011;19535;50.672;4.206;2023-12-04T20:55:43;11.40;;;6.22;;
33170;SDS011;19535;50.672;4.206;2023-12-04T20:58:12;14.27;;;6.97;;
33170;SDS011;19535;50.672;4.206;2023-12-04T21:00:39;11.75;;;7.03;;
33170;SDS011;19535;50.672;4.206;2023-12-04T21:03:08;12.07;;;7.65;;
33170;SDS011;19535;50.672;4.206;2023-12-04T21:05:36;11.95;;;6.30;;
33170;SDS011;19535;50.672;4.206;2023-12-04T21:08:03;9.52;;;6.25;;
33170;SDS011;19535;50.672;4.206;2023-12-04T21:10:31;10.40;;;7.03;;
33170;SDS011;19535;50.672;4.206;2023-12-04T21:12:58;11.05;;;6.10;;
33170;SDS011;19535;50.672;4.206;2023-12-04T21:15:25;8.88;;;5.63;;
33170;SDS011;19535;50.672;4.206;2023-12-04T21:17:52;8.68;;;5.80;;
33170;SDS011;19535;50.672;4.206;2023-12-04T21:20:19;9.90;;;5.75;;
33170;SDS011;19535;50.672;4.206;2023-12-04T21:22:46;9.93;;;5.85;;
33170;SDS011;19535;50.672;4.206;2023-12-04T21:25:13;12.63;;;7.03;;
33170;SDS011;19535;50.672;4.206;2023-12-04T21:27:40;9.35;;;7.10;;
33170;SDS011;19535;50.672;4.206;2023-12-04T21:30:07;9.65;;;6.85;;
33170;SDS011;19535;50.672;4.206;2023-12-04T21:32:37;7.63;;;6.50;;
33170;SDS011;19535;50.672;4.206;2023-12-04T21:35:05;10.95;;;6.63;;
33170;SDS011;19535;50.672;4.206;2023-12-04T21:37:32;8.45;;;6.00;;
33170;SDS011;19535;50.672;4.206;2023-12-04T21:39:59;10.23;;;7.15;;
33170;SDS011;19535;50.672;4.206;2023-12-04T21:42:27;9.75;;;6.38;;
33170;SDS011;19535;50.672;4.206;2023-12-04T21:44:54;7.40;;;6.07;;
33170;SDS011;19535;50.672;4.206;2023-12-04T21:47:22;7.13;;;5.60;;
33170;SDS011;19535;50.672;4.206;2023-12-04T21:49:49;8.18;;;5.90;;
33170;SDS011;19535;50.672;4.206;2023-12-04T21:52:16;9.07;;;5.82;;
33170;SDS011;19535;50.672;4.206;2023-12-04T21:54:43;8.05;;;6.10;;
33170;SDS011;19535;50.672;4.206;2023-12-04T21:57:11;8.45;;;5.80;;
33170;SDS011;19535;50.672;4.206;2023-12-04T21:59:38;7.32;;;5.50;;
33170;SDS011;19535;50.672;4.206;2023-12-04T22:02:05;7.15;;;5.72;;
33170;SDS011;19535;50.672;4.206;2023-12-04T22:04:32;7.82;;;5.57;;
33170;SDS011;19535;50.672;4.206;2023-12-04T22:06:59;7.00;;;5.10;;
33170;SDS011;19535;50.672;4.206;2023-12-04T22:09:26;7.15;;;5.15;;